Sutton, AK (99674)

6:18 AM AKDT on October 01, 2014 (GMT -0800)
Sutton/Kings River | Change Station
CLOSE
Current Station
Personal Weather Station
Location: Sutton, AK
Elevation: 600 ft
Nearby Weather Stations

Elev 600 ft 61.74 °N, 148.77 °W | Updated 2 seconds ago

Clear
Clear
25.4 °F
Feels Like 25 °F
N
0.0
Wind Variable Wind from ESE
Gusts 0.0 mph

Today
High -- | Low -- °F
--% Chance of Precip.
Yesterday
High -- | Low -- °F
Precip. -- in
8:02 AM 7:25 PM
Waxing Crescent, 48% visible
Pressure 30.30 in
Visibility 10.0 miles
Clouds Clear
Windchill 25 °F
Dew Point 16 °F
Humidity 68%
Rainfall 0.00 in
Snow Depth Not available.
UV 0 out of 12
Pollen Not available.
Air Quality Not available.
Flu Activity Not available.
METAR PAAQ 011353Z AUTO 03003KT 10SM CLR M03/M06 A3029 RMK AO2 SLP261 T10331061 TSNO

More Conditions Fewer Conditions

Pressure 30.30 in
Visibility 10.0 miles
Clouds Clear
Windchill 25 °F
Dew Point 16 °F
Humidity 68%
Rainfall 0.00 in
Snow Depth Not available.
UV 0 out of 12
Pollen Not available.
Air Quality Not available.
Flu Activity Not available.
METAR PAAQ 011353Z AUTO 03003KT 10SM CLR M03/M06 A3029 RMK AO2 SLP261 T10331061 TSNO

More Conditions Fewer Conditions

10-Day Weather Forecast

Almanac

Astronomy

Oct. 01, 2014 Rise Set
Actual Time 8:02 AM AKDT 7:25 PM AKDT
Civil Twilight 7:19 AM AKDT 8:09 PM AKDT
Nautical Twilight 6:27 AM AKDT 9:00 PM AKDT
Astronomical Twilight 5:32 AM AKDT 9:55 PM AKDT
Moon 4:28 PM AKDT 11:55 PM AKDT
Length of Visible Light 12h 50m
Length of Day
11h 22m
Tomorrow will be 5m 48s shorter.
Waxing Crescent, 48% of the Moon is Illuminated
Today
Waxing Crescent
Oct 1
First Quarter
Oct 8
Full
Oct 15
Last Quarter
Oct 23
New

Today's Extremes

State Highs State Lows

Community

WunderPhotos

Upload Photos

1,757,952 photos uploaded!

Nearby

Snow Depth

Station Depth Elevation
Gobblers Knob 4 in 2030 ft
Point Mackenzie 1 in 200 ft
Monument Creek 1 in 1850 ft
Indian Pass 1 in 2300 ft
Mt. Ryan 3 in 2800 ft

Earthquake Activity

City Distance Mag. Time & Date
No recent earthquake activity has been reported nearby.
Minimum magnitude displayed is 2.5.

Coastal Water Temperatures

Place Temperature
No Stations Reporting

Nearby Weather Stations